Time;durP1;ratioP1;P1;durP2;ratioP2;P2;SDS_P1;SDS_P2;PMS_P1;PMS_P2;Temp;Humidity;BMP_temperature;BMP_pressure;BME280_temperature;BME280_humidity;BME280_pressure;Samples;Min_cycle;Max_cycle;Signal;HPM_P1;HPM_P2
2019/05/25 00:01:59;;;;;;;6.2;5.6;;;;;;;15.07;68.01855;957.9308;;;;
2019/05/25 00:04:33;;;;;;;6.3;5.6;;;;;;;15.02;67.64941;957.95;;;;
2019/05/25 00:06:59;;;;;;;6.5;5.8;;;;;;;14.96;68.03516;957.9828;;;;
2019/05/25 00:09:24;;;;;;;7;5.7;;;;;;;15.04;65.59375;957.9128;;;;
2019/05/25 00:11:50;;;;;;;6.5;5.6;;;;;;;15.17;65.60254;957.9514;;;;
2019/05/25 00:14:15;;;;;;;7.5;5.7;;;;;;;15.07;68.16895;957.957;;;;
2019/05/25 00:16:40;;;;;;;6.2;5.6;;;;;;;14.95;68.26563;957.9794;;;;
2019/05/25 00:19:05;;;;;;;7.1;6.2;;;;;;;14.89;69.28027;958.0203;;;;
2019/05/25 00:21:30;;;;;;;6.8;6.1;;;;;;;14.83;69.22363;958.0048;;;;
2019/05/25 00:23:57;;;;;;;6.7;6;;;;;;;14.78;68.84375;957.9892;;;;
2019/05/25 00:26:22;;;;;;;6.7;6;;;;;;;14.78;68.68066;957.9755;;;;
2019/05/25 00:28:47;;;;;;;6;5.4;;;;;;;14.79;68.37012;957.9917;;;;
2019/05/25 00:31:12;;;;;;;7;6.4;;;;;;;14.73;68.66211;957.9105;;;;
2019/05/25 00:33:37;;;;;;;7.7;7;;;;;;;14.67;69.52246;957.9311;;;;
2019/05/25 00:36:04;;;;;;;7.6;6.1;;;;;;;14.59;68.88379;957.9219;;;;
2019/05/25 00:38:45;;;;;;;6.4;5.8;;;;;;;14.57;69.64746;957.9459;;;;
2019/05/25 00:41:16;;;;;;;6.6;5.9;;;;;;;14.47;69.11914;957.9953;;;;
2019/05/25 00:43:41;;;;;;;6.6;5.9;;;;;;;14.45;69.80078;957.9714;;;;
2019/05/25 00:46:06;;;;;;;6.6;5.5;;;;;;;14.51;68.74316;957.9651;;;;
2019/05/25 00:48:31;;;;;;;7.1;6;;;;;;;14.46;70.81348;957.979;;;;
2019/05/25 00:51:01;;;;;;;6.5;5.9;;;;;;;14.37;70.18359;957.9797;;;;
2019/05/25 00:53:26;;;;;;;6.2;5.5;;;;;;;14.43;69.93848;957.8723;;;;
2019/05/25 00:55:51;;;;;;;6.5;5.9;;;;;;;14.4;70.91895;957.9067;;;;
2019/05/25 00:58:16;;;;;;;6.5;5.8;;;;;;;14.33;70.09668;957.9403;;;;
2019/05/25 01:00:42;;;;;;;6.1;5.5;;;;;;;14.34;70.39941;957.9124;;;;
2019/05/25 01:03:07;;;;;;;6.7;6;;;;;;;14.33;70.4668;957.9622;;;;
2019/05/25 01:05:32;;;;;;;7.1;5.8;;;;;;;14.3;70.78711;957.878;;;;
2019/05/25 01:08:19;;;;;;;6.3;5.7;;;;;;;14.27;70.5752;957.9066;;;;
2019/05/25 01:10:45;;;;;;;6.4;5.8;;;;;;;14.22;70.77441;957.908;;;;
2019/05/25 01:13:10;;;;;;;6.3;5.7;;;;;;;14.21;70.56348;957.9221;;;;
2019/05/25 01:15:35;;;;;;;7.3;5.8;;;;;;;14.18;71.88281;957.8769;;;;
2019/05/25 01:18:02;;;;;;;6.5;5.9;;;;;;;14.19;71.6748;957.9325;;;;
2019/05/25 01:20:27;;;;;;;6.1;5.5;;;;;;;14.2;71.29395;957.9014;;;;
2019/05/25 01:22:52;;;;;;;7.7;6;;;;;;;14.24;69.55957;957.9099;;;;
2019/05/25 01:25:26;;;;;;;7.2;5.8;;;;;;;14.31;70.64941;957.9558;;;;
2019/05/25 01:27:59;;;;;;;6.7;6;;;;;;;14.29;71.48242;957.9138;;;;
2019/05/25 01:30:25;;;;;;;6.2;5.6;;;;;;;14.26;72;957.912;;;;
2019/05/25 01:32:50;;;;;;;5.6;5.1;;;;;;;14.18;71.18652;957.9556;;;;
2019/05/25 01:35:17;;;;;;;6.4;5.8;;;;;;;14.13;72.37402;957.8996;;;;
2019/05/25 01:37:51;;;;;;;6.3;5.7;;;;;;;14.05;72.52344;957.8691;;;;
2019/05/25 01:40:17;;;;;;;6.2;5.6;;;;;;;13.97;72.21777;957.8688;;;;
2019/05/25 01:42:42;;;;;;;6.4;5.8;;;;;;;13.86;73.52441;957.9144;;;;
2019/05/25 01:45:09;;;;;;;7.2;5.7;;;;;;;13.86;73.23438;957.8881;;;;
2019/05/25 01:47:33;;;;;;;5.9;5.3;;;;;;;13.83;72.86816;957.8611;;;;
2019/05/25 01:49:58;;;;;;;6;5.3;;;;;;;13.81;73.71387;957.8231;;;;
2019/05/25 01:52:24;;;;;;;8;5.5;;;;;;;13.85;71.30566;957.8503;;;;
2019/05/25 01:54:49;;;;;;;6.2;5.6;;;;;;;13.85;72.38477;957.8724;;;;
2019/05/25 01:57:15;;;;;;;6.2;5.2;;;;;;;13.81;71.55566;957.8633;;;;
2019/05/25 01:59:41;;;;;;;5.7;5.2;;;;;;;13.87;72.23633;957.9316;;;;
2019/05/25 02:02:06;;;;;;;6.8;5.9;;;;;;;13.79;72.3291;957.8782;;;;
2019/05/25 02:04:31;;;;;;;6.6;5.6;;;;;;;13.73;72.40039;957.9194;;;;
2019/05/25 02:06:56;;;;;;;6.3;5.7;;;;;;;13.81;71.99609;957.9239;;;;
2019/05/25 02:09:21;;;;;;;6;5.4;;;;;;;13.71;72.47852;957.8647;;;;
2019/05/25 02:11:59;;;;;;;6.8;5.7;;;;;;;13.65;71.6084;957.8669;;;;
2019/05/25 02:14:27;;;;;;;6.1;5.5;;;;;;;13.8;70.29004;957.9207;;;;
2019/05/25 02:16:52;;;;;;;6.5;5.5;;;;;;;13.77;70.43457;957.8412;;;;
2019/05/25 02:19:17;;;;;;;8.1;5.8;;;;;;;13.66;72.63184;957.8702;;;;
2019/05/25 02:21:42;;;;;;;6.5;5.8;;;;;;;13.67;72.59863;957.8774;;;;
2019/05/25 02:24:14;;;;;;;7.5;6.4;;;;;;;13.66;70.83496;957.9217;;;;
2019/05/25 02:26:39;;;;;;;6.6;5.9;;;;;;;13.66;71.04297;957.9094;;;;
2019/05/25 02:29:04;;;;;;;6.1;5.5;;;;;;;13.68;70.5957;957.9153;;;;
2019/05/25 02:31:29;;;;;;;6.2;5.6;;;;;;;13.62;71.31543;957.8823;;;;
2019/05/25 02:33:54;;;;;;;6.1;5.5;;;;;;;13.61;71.32422;957.8358;;;;
2019/05/25 02:36:19;;;;;;;6.3;5.7;;;;;;;13.61;72.72656;957.8141;;;;
2019/05/25 02:38:44;;;;;;;8.3;5.8;;;;;;;13.46;74.30176;957.8113;;;;
2019/05/25 02:41:10;;;;;;;7;6.3;;;;;;;13.32;74.83301;957.7776;;;;
2019/05/25 02:43:35;;;;;;;8.6;6;;;;;;;13.26;74.17383;957.793;;;;
2019/05/25 02:46:00;;;;;;;7;6.3;;;;;;;13.21;74.17773;957.7972;;;;
2019/05/25 02:48:25;;;;;;;6.8;6.1;;;;;;;13.16;74.94629;957.7673;;;;
2019/05/25 02:50:50;;;;;;;6.8;6.2;;;;;;;13.14;74.96484;957.7428;;;;
2019/05/25 02:53:15;;;;;;;7.1;6.2;;;;;;;13.12;75.42285;957.8456;;;;
2019/05/25 02:55:40;;;;;;;6.7;6.1;;;;;;;13.09;75.12891;957.8528;;;;
2019/05/25 02:58:06;;;;;;;6.7;6.1;;;;;;;13.06;75.18164;957.8478;;;;
2019/05/25 03:00:31;;;;;;;6.8;6.1;;;;;;;13.04;75.73438;957.932;;;;
2019/05/25 03:02:58;;;;;;;7.2;6.5;;;;;;;13;75.88867;957.8711;;;;
2019/05/25 03:05:21;;;;;;;6.9;6.2;;;;;;;13.07;75.11426;957.8943;;;;
2019/05/25 03:07:46;;;;;;;6.9;6.3;;;;;;;12.98;76.33887;957.8638;;;;
2019/05/25 03:10:11;;;;;;;6.7;6.1;;;;;;;12.95;75.37207;957.9149;;;;
2019/05/25 03:12:37;;;;;;;8.5;6.4;;;;;;;12.92;75.5752;957.9484;;;;
2019/05/25 03:15:02;;;;;;;6.6;6;;;;;;;12.88;76.5625;957.8342;;;;
2019/05/25 03:17:27;;;;;;;7.1;6.5;;;;;;;12.87;76.17969;957.8491;;;;
2019/05/25 03:19:52;;;;;;;7.4;6.8;;;;;;;12.82;76.25293;957.945;;;;
2019/05/25 03:22:17;;;;;;;7.2;6.5;;;;;;;12.78;76.05957;957.9751;;;;
2019/05/25 03:24:42;;;;;;;7.4;6.3;;;;;;;12.75;76.18164;957.9911;;;;
2019/05/25 03:27:07;;;;;;;7;6.3;;;;;;;12.73;76.30469;957.9501;;;;
2019/05/25 03:29:32;;;;;;;6.7;6;;;;;;;12.74;76.84961;957.901;;;;
2019/05/25 03:31:57;;;;;;;7.2;6.5;;;;;;;12.75;76.41211;957.9609;;;;
2019/05/25 03:34:27;;;;;;;7.7;6.9;;;;;;;12.78;75.44629;957.9841;;;;
2019/05/25 03:36:53;;;;;;;7.6;6.2;;;;;;;12.95;73.82129;958.0547;;;;
2019/05/25 03:39:18;;;;;;;7.2;6.5;;;;;;;13.04;73.22266;958.0369;;;;
2019/05/25 03:41:43;;;;;;;7.6;6.4;;;;;;;13.07;72.98438;958.0162;;;;
2019/05/25 03:44:08;;;;;;;7.4;6.6;;;;;;;13.03;74.18164;958.0292;;;;
2019/05/25 03:46:33;;;;;;;6.6;6;;;;;;;12.93;74.46582;958.0482;;;;
2019/05/25 03:48:58;;;;;;;8.3;6.8;;;;;;;12.95;73.35645;958.0375;;;;
2019/05/25 03:51:24;;;;;;;7.5;6.7;;;;;;;12.98;73.0752;957.9947;;;;
2019/05/25 03:53:49;;;;;;;6.7;6.1;;;;;;;12.99;73.00586;957.9856;;;;
2019/05/25 03:56:14;;;;;;;8.2;5.9;;;;;;;12.98;73.02734;958.0737;;;;
2019/05/25 03:58:39;;;;;;;6.6;5.8;;;;;;;12.95;73.28906;958.0195;;;;
2019/05/25 04:02:28;;;;;;;6.7;6.1;;;;;;;12.91;73.08594;958.0012;;;;
2019/05/25 04:04:53;;;;;;;6.9;6.2;;;;;;;12.93;73.64453;957.9958;;;;
2019/05/25 04:07:19;;;;;;;6.8;6.2;;;;;;;12.89;73.92773;958.021;;;;
2019/05/25 04:09:44;;;;;;;6.9;6.3;;;;;;;12.84;75.06445;958.0565;;;;
2019/05/25 04:12:09;;;;;;;6.5;5.9;;;;;;;12.83;75.2002;958.0145;;;;
2019/05/25 04:14:35;;;;;;;7.5;6.4;;;;;;;12.81;75.09277;957.9991;;;;
2019/05/25 04:17:02;;;;;;;7.2;6.4;;;;;;;12.77;75.90723;958.0591;;;;
2019/05/25 04:19:27;;;;;;;7.4;6.7;;;;;;;12.73;75.94629;958.0898;;;;
2019/05/25 04:21:52;;;;;;;8;7.2;;;;;;;12.78;75.48145;958.1149;;;;
2019/05/25 04:24:17;;;;;;;7.6;6.9;;;;;;;12.83;75.47754;958.1536;;;;
2019/05/25 04:26:43;;;;;;;8.2;7.4;;;;;;;12.88;75.75293;958.118;;;;
2019/05/25 04:29:10;;;;;;;7.7;6.9;;;;;;;12.89;76.10352;958.1127;;;;
2019/05/25 04:31:35;;;;;;;7.8;7;;;;;;;12.85;76.12988;958.1775;;;;
2019/05/25 04:34:00;;;;;;;7.9;7.2;;;;;;;12.85;75.55176;958.1775;;;;
2019/05/25 04:36:25;;;;;;;8.4;7.6;;;;;;;12.89;76.03223;958.1655;;;;
2019/05/25 04:38:51;;;;;;;8.5;7.7;;;;;;;12.92;76.47852;958.2017;;;;
2019/05/25 04:41:17;;;;;;;8.1;7.3;;;;;;;12.98;75.44629;958.248;;;;
2019/05/25 04:43:42;;;;;;;8;7.2;;;;;;;12.99;74.16309;958.2687;;;;
2019/05/25 04:46:07;;;;;;;7.6;6.8;;;;;;;12.96;74.2627;958.2897;;;;
2019/05/25 04:48:34;;;;;;;8.2;6.9;;;;;;;13.01;74.37598;958.3324;;;;
2019/05/25 04:50:59;;;;;;;7.4;6.7;;;;;;;13.07;75.0791;958.3173;;;;
2019/05/25 04:53:30;;;;;;;8.5;7.1;;;;;;;13.11;74.23047;958.3661;;;;
2019/05/25 04:55:55;;;;;;;6.9;6.3;;;;;;;13.15;74.80371;958.3531;;;;
2019/05/25 04:58:21;;;;;;;7.4;6.5;;;;;;;13.16;75.35156;958.3215;;;;
2019/05/25 05:00:46;;;;;;;8.9;7;;;;;;;13.18;76.42969;958.3158;;;;
2019/05/25 05:03:14;;;;;;;8.4;7.1;;;;;;;13.13;75.68066;958.3201;;;;
2019/05/25 05:05:41;;;;;;;7.7;7;;;;;;;13.15;76.96875;958.2706;;;;
2019/05/25 05:08:26;;;;;;;7.8;7.1;;;;;;;13.28;75.33496;958.2667;;;;
2019/05/25 05:10:55;;;;;;;7.9;7.1;;;;;;;13.42;74.89648;958.1956;;;;
2019/05/25 05:13:21;;;;;;;8.2;7.4;;;;;;;13.52;75.96777;958.2117;;;;
2019/05/25 05:15:46;;;;;;;8.3;7.6;;;;;;;13.65;74.80762;958.2338;;;;
2019/05/25 05:18:11;;;;;;;9.1;8.2;;;;;;;13.74;71.99609;958.2547;;;;
2019/05/25 05:20:39;;;;;;;8.9;8.1;;;;;;;13.88;71.74121;958.2881;;;;
2019/05/25 05:23:17;;;;;;;8.3;7.5;;;;;;;14.01;71.34375;958.3451;;;;
2019/05/25 05:25:42;;;;;;;8.9;8.1;;;;;;;14.1;70.53613;958.4142;;;;
2019/05/25 05:28:11;;;;;;;8.9;7.9;;;;;;;14.06;70.51758;958.4838;;;;
2019/05/25 05:30:36;;;;;;;7.9;7.2;;;;;;;14.09;70.65918;958.4943;;;;
2019/05/25 05:33:02;;;;;;;9.2;7.8;;;;;;;14.08;70.60156;958.478;;;;
2019/05/25 05:35:27;;;;;;;8.3;7.5;;;;;;;14.06;70.93555;958.4969;;;;
2019/05/25 05:37:53;;;;;;;7.6;6.9;;;;;;;14.05;71.01465;958.4934;;;;
2019/05/25 05:40:18;;;;;;;8.5;7.6;;;;;;;14.12;70.98047;958.4906;;;;
2019/05/25 05:42:56;;;;;;;8.3;7.5;;;;;;;14.17;70.60449;958.5209;;;;
2019/05/25 05:45:28;;;;;;;8.8;8;;;;;;;14.23;70.09277;958.4268;;;;
2019/05/25 05:48:05;;;;;;;10.8;8.4;;;;;;;14.31;70.16211;958.5067;;;;
2019/05/25 05:50:30;;;;;;;9.2;8.3;;;;;;;14.38;70.20996;958.5903;;;;
2019/05/25 05:52:56;;;;;;;9;8.1;;;;;;;14.47;70.38477;958.5332;;;;
2019/05/25 05:55:21;;;;;;;9.7;8.7;;;;;;;14.54;68.99121;958.5527;;;;
2019/05/25 05:57:46;;;;;;;9.3;8.4;;;;;;;14.63;69.0293;958.5471;;;;
2019/05/25 06:00:11;;;;;;;9.2;8.3;;;;;;;14.66;68.79004;958.6054;;;;
2019/05/25 06:02:36;;;;;;;9.4;8.5;;;;;;;14.77;68.65625;958.5889;;;;
2019/05/25 06:05:02;;;;;;;10.1;8.6;;;;;;;14.84;68.67969;958.6475;;;;
2019/05/25 06:07:27;;;;;;;8.7;7.9;;;;;;;14.87;69.36816;958.6185;;;;
2019/05/25 06:09:53;;;;;;;9;8.1;;;;;;;14.91;68.89941;958.5703;;;;
2019/05/25 06:12:18;;;;;;;9.1;8.2;;;;;;;14.95;68.6377;958.5833;;;;
2019/05/25 06:14:46;;;;;;;9.7;8.7;;;;;;;15;68.11133;958.6039;;;;
2019/05/25 06:17:11;;;;;;;8.9;8.1;;;;;;;15.07;67.84277;958.5883;;;;
2019/05/25 06:19:36;;;;;;;9.4;8.5;;;;;;;15.12;67.85059;958.6351;;;;
2019/05/25 06:22:02;;;;;;;8.8;7.9;;;;;;;15.18;67.96387;958.6113;;;;
2019/05/25 06:24:27;;;;;;;9.3;8.3;;;;;;;15.24;67.96191;958.5613;;;;
2019/05/25 06:26:54;;;;;;;9.4;8.5;;;;;;;15.31;68.78711;958.6365;;;;
2019/05/25 06:29:19;;;;;;;9.6;8.7;;;;;;;15.38;67.90234;958.6597;;;;
2019/05/25 06:31:46;;;;;;;9.4;8.4;;;;;;;15.45;67.62305;958.6916;;;;
2019/05/25 06:34:11;;;;;;;11.1;9.7;;;;;;;15.48;66.98828;958.7408;;;;
2019/05/25 06:36:38;;;;;;;9.2;8.3;;;;;;;15.5;67.23535;958.7606;;;;
2019/05/25 06:39:04;;;;;;;11.3;9.2;;;;;;;15.52;66.49316;958.7056;;;;
2019/05/25 06:41:28;;;;;;;11.9;9.2;;;;;;;15.55;66.50879;958.7422;;;;
2019/05/25 06:43:53;;;;;;;10.5;9.5;;;;;;;15.63;66.32324;958.7725;;;;
2019/05/25 06:46:18;;;;;;;9.6;8.7;;;;;;;15.72;66.38281;958.7809;;;;
2019/05/25 06:48:44;;;;;;;9.6;8.7;;;;;;;15.72;66.42969;958.7759;;;;
2019/05/25 06:51:20;;;;;;;10.7;9.6;;;;;;;15.67;66.72461;958.7989;;;;
2019/05/25 06:53:45;;;;;;;10.4;9.3;;;;;;;15.66;65.78027;958.7742;;;;
2019/05/25 06:56:10;;;;;;;9.8;8.9;;;;;;;15.8;65.90625;958.8292;;;;
2019/05/25 06:58:35;;;;;;;9.7;8.7;;;;;;;15.87;66.05664;958.7863;;;;
2019/05/25 07:01:01;;;;;;;9;8.1;;;;;;;15.98;66.7373;958.7958;;;;
2019/05/25 07:03:26;;;;;;;10;8.6;;;;;;;16.04;63.09766;958.7414;;;;
2019/05/25 07:05:51;;;;;;;9.6;8.7;;;;;;;16.22;62.42383;958.8049;;;;
2019/05/25 07:08:17;;;;;;;9.6;8.6;;;;;;;16.39;62.54102;958.7989;;;;
2019/05/25 07:10:42;;;;;;;11.5;9;;;;;;;16.49;62.14746;958.8011;;;;
2019/05/25 07:13:09;;;;;;;8.9;8;;;;;;;16.6;61.53516;958.8713;;;;
2019/05/25 07:15:34;;;;;;;9.6;8.3;;;;;;;16.68;61.28906;958.8887;;;;
2019/05/25 07:18:10;;;;;;;9.4;8.5;;;;;;;16.75;61.97656;958.8893;;;;
2019/05/25 07:20:35;;;;;;;8.6;7.4;;;;;;;16.86;60.85938;958.8945;;;;
2019/05/25 07:23:01;;;;;;;8.5;7.3;;;;;;;16.96;58.99219;958.8397;;;;
2019/05/25 07:25:26;;;;;;;9.1;8.2;;;;;;;17;59.21777;958.9142;;;;
2019/05/25 07:27:54;;;;;;;8.5;7.6;;;;;;;17.09;57.87695;958.921;;;;
2019/05/25 07:30:19;;;;;;;8.7;7.5;;;;;;;17.11;58.45117;958.8839;;;;
2019/05/25 07:32:54;;;;;;;8.1;7.1;;;;;;;17.14;59.50586;958.9246;;;;
2019/05/25 07:35:19;;;;;;;8.7;7.8;;;;;;;17.26;59.34766;958.8884;;;;
2019/05/25 07:37:44;;;;;;;9.5;7.7;;;;;;;17.38;59.33984;958.9894;;;;
2019/05/25 07:40:09;;;;;;;9.1;7.9;;;;;;;17.52;57.94434;958.9025;;;;
2019/05/25 07:42:34;;;;;;;23.8;15.6;;;;;;;17.62;56.27246;958.8729;;;;
2019/05/25 07:44:59;;;;;;;15;10.2;;;;;;;17.72;56.79004;958.8742;;;;
2019/05/25 07:47:24;;;;;;;8.4;6.6;;;;;;;17.89;56.1084;958.8772;;;;
2019/05/25 07:49:50;;;;;;;9.3;6.8;;;;;;;17.97;54.96094;958.8801;;;;
2019/05/25 07:52:15;;;;;;;7.1;6.3;;;;;;;18.01;53.66602;958.8929;;;;
2019/05/25 07:54:40;;;;;;;8.6;6.7;;;;;;;18.04;53.3291;958.9341;;;;
2019/05/25 07:57:05;;;;;;;8.3;6.1;;;;;;;18.08;53.14648;958.9163;;;;
2019/05/25 07:59:30;;;;;;;6;5.2;;;;;;;18.07;51.49414;958.9791;;;;
2019/05/25 08:01:55;;;;;;;7.5;5.7;;;;;;;18.28;50.87402;958.9673;;;;
2019/05/25 08:04:20;;;;;;;7.7;5.8;;;;;;;18.42;51.75879;959.0027;;;;
2019/05/25 08:06:45;;;;;;;8.5;6.1;;;;;;;18.52;50.12988;959.0305;;;;
2019/05/25 08:09:15;;;;;;;7.4;5.5;;;;;;;18.54;50.27344;959.0095;;;;
2019/05/25 08:11:48;;;;;;;6.2;5.4;;;;;;;18.49;49.66895;958.9774;;;;
2019/05/25 08:14:28;;;;;;;7.8;5.4;;;;;;;18.66;49.88672;959.0096;;;;
2019/05/25 08:16:59;;;;;;;5.6;4.6;;;;;;;18.91;50.10352;959.0413;;;;
2019/05/25 08:19:30;;;;;;;7.6;5.6;;;;;;;19.25;48.61523;959.1228;;;;
2019/05/25 08:21:55;;;;;;;7.3;5.3;;;;;;;19.19;48.37402;959.0419;;;;
2019/05/25 08:24:20;;;;;;;7.7;5.7;;;;;;;19.16;47.06836;959.0234;;;;
2019/05/25 08:26:45;;;;;;;7;5;;;;;;;19.44;50.01172;959.0765;;;;
2019/05/25 08:29:15;;;;;;;8.7;4.8;;;;;;;19.64;49.09375;959.0824;;;;
2019/05/25 08:31:50;;;;;;;6.7;4.6;;;;;;;19.64;46.7793;959.1221;;;;
2019/05/25 08:34:25;;;;;;;6.7;4.3;;;;;;;19.44;44.77344;959.1339;;;;
2019/05/25 08:37:09;;;;;;;5.3;3.8;;;;;;;19.45;46.1709;959.1248;;;;
2019/05/25 08:39:34;;;;;;;3.7;3.3;;;;;;;19.35;45.82031;959.1409;;;;
2019/05/25 08:42:00;;;;;;;6.3;4;;;;;;;19.25;45.15234;959.1097;;;;
2019/05/25 08:44:34;;;;;;;6.3;4.1;;;;;;;19.07;46.57617;959.1231;;;;
2019/05/25 08:47:00;;;;;;;5.6;3.5;;;;;;;19.2;47.89355;959.1731;;;;
2019/05/25 08:49:25;;;;;;;5.9;3.6;;;;;;;19.2;46.88477;959.1152;;;;
2019/05/25 08:51:50;;;;;;;7.5;3.3;;;;;;;19.21;45.40723;959.1144;;;;
2019/05/25 08:54:16;;;;;;;5.6;3.4;;;;;;;19.16;46.96289;959.116;;;;
2019/05/25 08:56:41;;;;;;;4.6;4;;;;;;;19.15;46.86816;959.0692;;;;
2019/05/25 08:59:06;;;;;;;5.3;3.9;;;;;;;19.04;47.4541;959.1178;;;;
2019/05/25 09:01:33;;;;;;;5.7;3.9;;;;;;;19.06;46.64551;959.1242;;;;
2019/05/25 09:03:58;;;;;;;5.5;3.6;;;;;;;19.03;47.28809;959.1584;;;;
2019/05/25 09:06:23;;;;;;;3.6;3.1;;;;;;;19.15;47.00879;959.1699;;;;
2019/05/25 09:08:48;;;;;;;4;3.6;;;;;;;19.23;45.83008;959.1165;;;;
2019/05/25 09:11:14;;;;;;;5.5;4.2;;;;;;;19.33;46.5332;959.1838;;;;
2019/05/25 09:13:41;;;;;;;3.5;3.2;;;;;;;19.38;46.92773;959.1853;;;;
2019/05/25 09:16:06;;;;;;;5.3;3.8;;;;;;;19.19;44.73535;959.2006;;;;
2019/05/25 09:18:31;;;;;;;3.6;3;;;;;;;19.41;45.67383;959.2697;;;;
2019/05/25 09:20:59;;;;;;;3.9;3.4;;;;;;;19.44;46.22949;959.253;;;;
2019/05/25 09:23:24;;;;;;;5.4;3.7;;;;;;;19.52;46.2373;959.2748;;;;
2019/05/25 09:25:49;;;;;;;5.6;3.9;;;;;;;19.69;46.9248;959.3855;;;;
2019/05/25 09:28:15;;;;;;;6.2;4;;;;;;;19.53;48.77539;959.3168;;;;
2019/05/25 09:30:40;;;;;;;4.8;3.8;;;;;;;19.51;47.68066;959.3369;;;;
2019/05/25 09:33:05;;;;;;;6;3.9;;;;;;;19.43;47.27344;959.3381;;;;
2019/05/25 09:35:30;;;;;;;4.8;3.9;;;;;;;19.49;46.08203;959.4017;;;;
2019/05/25 09:37:56;;;;;;;5.9;4.7;;;;;;;19.24;47.38184;959.3568;;;;
2019/05/25 09:40:24;;;;;;;6.2;4.3;;;;;;;19.21;48.75293;959.4185;;;;
2019/05/25 09:42:55;;;;;;;5.4;4.3;;;;;;;19.22;48.67188;959.386;;;;
2019/05/25 09:45:20;;;;;;;10.1;8.6;;;;;;;19.33;49.03418;959.3777;;;;
2019/05/25 09:47:45;;;;;;;9.7;7.4;;;;;;;19.43;50.15039;959.4135;;;;
2019/05/25 09:50:10;;;;;;;12.8;9.4;;;;;;;19.56;49.69531;959.3839;;;;
2019/05/25 09:52:36;;;;;;;12.1;6;;;;;;;19.5;51.0166;959.3691;;;;
2019/05/25 09:55:03;;;;;;;18.1;6.4;;;;;;;19.59;50.60352;959.437;;;;
2019/05/25 09:57:28;;;;;;;99.8;13.6;;;;;;;19.66;51.58691;959.486;;;;
2019/05/25 09:59:53;;;;;;;22;6.9;;;;;;;19.74;50.34961;959.4722;;;;
2019/05/25 10:02:18;;;;;;;39.4;8.8;;;;;;;19.66;52.58594;959.5613;;;;
2019/05/25 10:04:54;;;;;;;6.3;5.7;;;;;;;19.44;52.50098;959.5447;;;;
2019/05/25 10:07:20;;;;;;;8.4;5;;;;;;;19.46;53.20898;959.5723;;;;
2019/05/25 10:09:48;;;;;;;5.8;4.8;;;;;;;19.39;53.7168;959.5637;;;;
2019/05/25 10:12:15;;;;;;;5.7;5.1;;;;;;;19.37;55.67578;959.5919;;;;
2019/05/25 10:14:40;;;;;;;6.3;5.3;;;;;;;19.21;57.80371;959.6169;;;;
2019/05/25 10:17:05;;;;;;;6.9;5.8;;;;;;;19.17;57.61035;959.5817;;;;
2019/05/25 10:19:30;;;;;;;7.5;5.9;;;;;;;19.05;58.36914;959.5967;;;;
2019/05/25 10:21:56;;;;;;;7.9;6.2;;;;;;;18.98;59.35742;959.6225;;;;
2019/05/25 10:24:21;;;;;;;7.2;5.9;;;;;;;18.79;60.46973;959.593;;;;
2019/05/25 10:26:47;;;;;;;8.2;7;;;;;;;18.5;63.18262;959.6763;;;;
2019/05/25 10:29:12;;;;;;;7.5;6.8;;;;;;;18.26;62.97266;959.6161;;;;
2019/05/25 10:31:37;;;;;;;7.2;6.5;;;;;;;18.23;62.86426;959.6016;;;;
2019/05/25 10:34:11;;;;;;;6.8;6.1;;;;;;;18.11;63.50391;959.5278;;;;
2019/05/25 10:36:40;;;;;;;7.2;5.3;;;;;;;18.01;64.90527;959.5183;;;;
2019/05/25 10:39:11;;;;;;;5.8;5.2;;;;;;;17.95;67.2832;959.42;;;;
2019/05/25 10:41:46;;;;;;;5.7;5.2;;;;;;;17.87;64.56738;959.3192;;;;
2019/05/25 10:44:31;;;;;;;7.4;5.6;;;;;;;17.91;66.9375;959.2883;;;;
2019/05/25 10:47:15;;;;;;;5.1;4.6;;;;;;;17.97;65.58887;959.2587;;;;
2019/05/25 10:49:54;;;;;;;6.2;5.6;;;;;;;18.11;64.35742;959.2293;;;;
2019/05/25 10:52:30;;;;;;;7.6;6;;;;;;;18.2;65.10645;959.1351;;;;
2019/05/25 10:54:57;;;;;;;6.1;5.5;;;;;;;18.31;67.45703;959.1609;;;;
2019/05/25 10:57:28;;;;;;;6;5.4;;;;;;;18.52;63.66602;959.1409;;;;
2019/05/25 11:00:11;;;;;;;4.3;3.9;;;;;;;18.64;63.53223;959.1437;;;;
2019/05/25 11:02:36;;;;;;;3.7;3.3;;;;;;;18.81;59.63867;959.1234;;;;
2019/05/25 11:05:01;;;;;;;3.1;2.7;;;;;;;18.88;54.87305;959.1152;;;;
2019/05/25 11:07:36;;;;;;;3;2.6;;;;;;;18.96;52.70215;959.127;;;;
2019/05/25 11:10:12;;;;;;;2.6;2.4;;;;;;;19.15;53.52441;959.0681;;;;
2019/05/25 11:12:37;;;;;;;2.5;2.1;;;;;;;19.33;52.05273;959.0119;;;;
2019/05/25 11:15:16;;;;;;;2.9;2.6;;;;;;;19.39;50.55762;958.9686;;;;
2019/05/25 11:17:41;;;;;;;2.1;1.9;;;;;;;19.5;50.0293;958.9418;;;;
2019/05/25 11:20:22;;;;;;;2.4;2.2;;;;;;;19.6;51.0625;958.9906;;;;
2019/05/25 11:23:00;;;;;;;2.9;2.6;;;;;;;19.77;50.57715;958.8861;;;;
2019/05/25 11:25:34;;;;;;;3.3;2.5;;;;;;;20.02;51.60547;958.8452;;;;
2019/05/25 11:28:11;;;;;;;2.9;2.6;;;;;;;19.94;49.59668;958.7936;;;;
2019/05/25 11:30:38;;;;;;;3.8;2.3;;;;;;;20.04;48.02051;958.7503;;;;
2019/05/25 11:33:24;;;;;;;2.9;2.2;;;;;;;20.05;47.57422;958.7405;;;;
2019/05/25 11:36:14;;;;;;;2.7;2.5;;;;;;;20.2;45.46094;958.7034;;;;
2019/05/25 11:38:48;;;;;;;3.8;2.7;;;;;;;20.16;48.37402;958.6909;;;;
2019/05/25 11:41:21;;;;;;;3;2.5;;;;;;;20.48;51.64844;958.6403;;;;
2019/05/25 11:43:51;;;;;;;2.7;2.5;;;;;;;20.49;45.0791;958.6443;;;;
2019/05/25 11:46:16;;;;;;;3.2;2.7;;;;;;;20.4;47.31836;958.6331;;;;
2019/05/25 11:48:42;;;;;;;3;2.5;;;;;;;20.62;44.7041;958.6362;;;;
2019/05/25 11:51:23;;;;;;;3.1;2.8;;;;;;;20.59;48.13965;958.5566;;;;
2019/05/25 11:53:48;;;;;;;2.7;2.4;;;;;;;20.37;47.09082;958.5452;;;;
2019/05/25 11:56:13;;;;;;;3.7;2.7;;;;;;;20.34;47.87695;958.5351;;;;
2019/05/25 11:58:39;;;;;;;3.7;3.1;;;;;;;20.37;49.7041;958.5095;;;;
2019/05/25 12:01:04;;;;;;;2.8;2.6;;;;;;;20.34;45.85254;958.4913;;;;
2019/05/25 12:03:29;;;;;;;2.5;2.3;;;;;;;20.53;44.08203;958.5156;;;;
2019/05/25 12:05:55;;;;;;;2.6;2.3;;;;;;;20.46;45.74707;958.5549;;;;
2019/05/25 12:08:21;;;;;;;2.6;2.3;;;;;;;20.51;45.02246;958.4693;;;;
2019/05/25 12:10:46;;;;;;;3.2;2.3;;;;;;;20.53;43.39844;958.5075;;;;
2019/05/25 12:13:12;;;;;;;2.7;2.1;;;;;;;20.44;46.94629;958.4253;;;;
2019/05/25 12:15:37;;;;;;;3;2.3;;;;;;;20.7;46.47754;958.4935;;;;
2019/05/25 12:18:02;;;;;;;2.3;1.9;;;;;;;20.9;44.60254;958.4105;;;;
2019/05/25 12:20:27;;;;;;;2.2;1.8;;;;;;;20.94;43.12109;958.3431;;;;
2019/05/25 12:22:52;;;;;;;2.2;1.7;;;;;;;20.84;42.15723;958.3828;;;;
2019/05/25 12:25:18;;;;;;;2;1.8;;;;;;;20.84;42.42871;958.3022;;;;
2019/05/25 12:27:43;;;;;;;2.7;2;;;;;;;20.81;40.74121;958.2134;;;;
2019/05/25 12:30:09;;;;;;;2.3;2;;;;;;;20.73;41.95801;958.242;;;;
2019/05/25 12:36:13;;;;;;;3.3;1.9;;;;;;;21.02;43.38867;958.2566;;;;
2019/05/25 12:38:39;;;;;;;2.6;1.9;;;;;;;21.24;42.20703;958.2545;;;;
2019/05/25 12:41:42;;;;;;;2.5;2;;;;;;;21.38;41.3125;958.1917;;;;
2019/05/25 12:44:13;;;;;;;7.9;3.1;;;;;;;21.62;41.33398;958.1822;;;;
2019/05/25 12:46:35;;;;;;;3.4;2.2;;;;;;;21.88;42.43262;958.1869;;;;
2019/05/25 12:49:01;;;;;;;2.4;1.9;;;;;;;21.89;40.16699;958.1633;;;;
2019/05/25 12:51:26;;;;;;;3.2;2;;;;;;;21.98;41.65234;958.1548;;;;
2019/05/25 12:54:06;;;;;;;1.6;1.5;;;;;;;22.21;39.08496;958.1994;;;;
2019/05/25 12:56:40;;;;;;;2.1;1.9;;;;;;;22.6;39.24902;958.2252;;;;
2019/05/25 12:59:25;;;;;;;1.8;1.7;;;;;;;22.32;40.35938;958.1437;;;;
2019/05/25 13:02:00;;;;;;;1.9;1.6;;;;;;;22.33;34.76953;958.1467;;;;
2019/05/25 13:04:21;;;;;;;3.2;1.4;;;;;;;22.24;34.48926;958.1512;;;;
2019/05/25 13:06:53;;;;;;;2.8;1.5;;;;;;;22.24;34.32324;958.1738;;;;
2019/05/25 13:09:21;;;;;;;2.2;1.6;;;;;;;22;34.17578;958.2059;;;;
2019/05/25 13:11:46;;;;;;;1.8;1.5;;;;;;;22.2;34.45117;958.3253;;;;
2019/05/25 13:14:12;;;;;;;2.9;1.5;;;;;;;21.89;37.41504;958.2338;;;;
2019/05/25 13:16:37;;;;;;;1.9;1.7;;;;;;;21.92;35.7168;958.2336;;;;
2019/05/25 13:19:03;;;;;;;2.4;1.6;;;;;;;21.9;36.00977;958.1797;;;;
2019/05/25 13:21:27;;;;;;;2.5;1.8;;;;;;;21.88;34.28516;958.1725;;;;
2019/05/25 13:23:52;;;;;;;1.7;1.5;;;;;;;21.77;34.94922;958.1431;;;;
2019/05/25 13:26:19;;;;;;;2.3;1.6;;;;;;;21.77;35.14941;958.1615;;;;
2019/05/25 13:28:47;;;;;;;2.9;2.1;;;;;;;21.57;34.35449;958.2466;;;;
2019/05/25 13:31:12;;;;;;;2.7;1.6;;;;;;;21.53;35.39063;958.1272;;;;
2019/05/25 13:33:38;;;;;;;3.5;1.7;;;;;;;21.7;38.95703;958.1669;;;;
2019/05/25 13:36:03;;;;;;;2.9;1.9;;;;;;;21.73;35.3125;958.1708;;;;
2019/05/25 13:38:33;;;;;;;3.1;1.7;;;;;;;21.74;36.16309;958.1206;;;;
2019/05/25 13:41:04;;;;;;;3.7;2;;;;;;;21.91;36.33008;958.151;;;;
2019/05/25 13:43:29;;;;;;;2;1.7;;;;;;;21.86;36.73926;958.145;;;;
2019/05/25 13:49:23;;;;;;;2.4;1.8;;;;;;;21.96;36.61816;958.1489;;;;
2019/05/25 13:51:51;;;;;;;3.2;1.8;;;;;;;22.15;36.36133;958.2167;;;;
2019/05/25 13:54:17;;;;;;;2.3;1.7;;;;;;;22.22;35.48047;958.2422;;;;
2019/05/25 13:56:42;;;;;;;2.9;2;;;;;;;22.2;36.95703;958.2138;;;;
2019/05/25 13:59:07;;;;;;;1.7;1.6;;;;;;;22.15;34.8252;958.2115;;;;
2019/05/25 14:01:34;;;;;;;3.2;1.7;;;;;;;22.09;33.99316;958.1403;;;;
2019/05/25 14:04:00;;;;;;;3.6;2.3;;;;;;;21.91;37.32227;958.1562;;;;
2019/05/25 14:06:25;;;;;;;2.9;1.9;;;;;;;21.73;37.39063;958.1973;;;;
2019/05/25 14:08:50;;;;;;;3.2;2.1;;;;;;;21.7;38.35449;958.1536;;;;
2019/05/25 14:11:19;;;;;;;3;2.5;;;;;;;21.89;37.08496;958.1541;;;;
2019/05/25 14:13:59;;;;;;;3;2.4;;;;;;;21.92;37.96094;958.0875;;;;
2019/05/25 14:16:29;;;;;;;3.2;2.5;;;;;;;21.92;38.35059;958.0621;;;;
2019/05/25 14:19:03;;;;;;;3.5;2.3;;;;;;;22.19;39.49609;958.0563;;;;
2019/05/25 14:21:27;;;;;;;2.7;2.3;;;;;;;22.47;38.59863;957.9734;;;;
2019/05/25 14:23:52;;;;;;;4;2.6;;;;;;;22.02;39.2334;958.168;;;;
2019/05/25 14:26:17;;;;;;;3.6;2.6;;;;;;;21.46;41.96875;958.3713;;;;
2019/05/25 14:28:51;;;;;;;3.8;2.7;;;;;;;20.77;44.29395;958.3215;;;;
2019/05/25 14:31:22;;;;;;;3.2;2.4;;;;;;;20.36;45.72461;958.3292;;;;
2019/05/25 14:34:00;;;;;;;3;2.3;;;;;;;20.56;45.63965;958.2559;;;;
2019/05/25 14:36:40;;;;;;;5.6;2.7;;;;;;;20.91;45.51074;958.329;;;;